sensor_id;sensor_type;location;lat;lon;timestamp;temperature;humidity
37560;DHT22;23398;50.928;7.084;2022-09-20T00:00:18;14.60;73.60
37560;DHT22;23398;50.928;7.084;2022-09-20T00:02:43;14.50;73.60
37560;DHT22;23398;50.928;7.084;2022-09-20T00:05:09;14.40;73.70
37560;DHT22;23398;50.928;7.084;2022-09-20T00:07:34;14.40;74.00
37560;DHT22;23398;50.928;7.084;2022-09-20T00:10:00;14.30;74.20
37560;DHT22;23398;50.928;7.084;2022-09-20T00:12:25;14.20;74.70
37560;DHT22;23398;50.928;7.084;2022-09-20T00:14:51;14.20;75.20
37560;DHT22;23398;50.928;7.084;2022-09-20T00:17:17;14.10;75.50
37560;DHT22;23398;50.928;7.084;2022-09-20T00:19:42;14.10;75.90
37560;DHT22;23398;50.928;7.084;2022-09-20T00:22:08;14.10;76.30
37560;DHT22;23398;50.928;7.084;2022-09-20T00:24:33;14.10;76.50
37560;DHT22;23398;50.928;7.084;2022-09-20T00:27:01;14.10;76.70
37560;DHT22;23398;50.928;7.084;2022-09-20T00:29:27;14.10;77.00
37560;DHT22;23398;50.928;7.084;2022-09-20T00:31:52;14.10;77.20
37560;DHT22;23398;50.928;7.084;2022-09-20T00:34:18;14.10;77.30
37560;DHT22;23398;50.928;7.084;2022-09-20T00:37:02;14.10;78.10
37560;DHT22;23398;50.928;7.084;2022-09-20T00:39:28;14.10;77.40
37560;DHT22;23398;50.928;7.084;2022-09-20T00:41:54;14.10;77.50
37560;DHT22;23398;50.928;7.084;2022-09-20T00:47:33;14.20;78.30
37560;DHT22;23398;50.928;7.084;2022-09-20T00:52:51;14.20;78.20
37560;DHT22;23398;50.928;7.084;2022-09-20T00:55:18;14.80;78.50
37560;DHT22;23398;50.928;7.084;2022-09-20T00:57:45;14.20;77.80
37560;DHT22;23398;50.928;7.084;2022-09-20T01:00:11;14.30;77.90
37560;DHT22;23398;50.928;7.084;2022-09-20T01:02:42;14.30;77.80
37560;DHT22;23398;50.928;7.084;2022-09-20T01:05:09;14.30;77.80
37560;DHT22;23398;50.928;7.084;2022-09-20T01:07:36;14.30;77.70
37560;DHT22;23398;50.928;7.084;2022-09-20T01:10:02;14.30;77.70
37560;DHT22;23398;50.928;7.084;2022-09-20T01:12:32;14.40;77.80
37560;DHT22;23398;50.928;7.084;2022-09-20T01:15:01;14.40;78.00
37560;DHT22;23398;50.928;7.084;2022-09-20T01:17:31;14.40;77.80
37560;DHT22;23398;50.928;7.084;2022-09-20T01:20:10;15.10;78.50
37560;DHT22;23398;50.928;7.084;2022-09-20T01:27:59;14.40;77.50
37560;DHT22;23398;50.928;7.084;2022-09-20T01:30:32;14.40;77.50
37560;DHT22;23398;50.928;7.084;2022-09-20T01:35:43;14.40;77.80
37560;DHT22;23398;50.928;7.084;2022-09-20T01:40:46;14.50;78.00
37560;DHT22;23398;50.928;7.084;2022-09-20T01:43:50;14.40;78.20
37560;DHT22;23398;50.928;7.084;2022-09-20T01:46:28;14.40;78.50
37560;DHT22;23398;50.928;7.084;2022-09-20T01:52:12;14.50;78.40
37560;DHT22;23398;50.928;7.084;2022-09-20T01:54:58;14.50;78.50
37560;DHT22;23398;50.928;7.084;2022-09-20T01:57:38;14.50;78.10
37560;DHT22;23398;50.928;7.084;2022-09-20T02:05:53;14.60;79.00
37560;DHT22;23398;50.928;7.084;2022-09-20T02:11:15;14.60;79.00
37560;DHT22;23398;50.928;7.084;2022-09-20T02:25:50;14.60;78.70
37560;DHT22;23398;50.928;7.084;2022-09-20T02:28:52;14.70;78.90
37560;DHT22;23398;50.928;7.084;2022-09-20T02:39:35;14.60;78.90
37560;DHT22;23398;50.928;7.084;2022-09-20T02:44:35;14.70;79.10
37560;DHT22;23398;50.928;7.084;2022-09-20T02:56:03;14.70;80.40
37560;DHT22;23398;50.928;7.084;2022-09-20T03:01:31;14.80;80.00
37560;DHT22;23398;50.928;7.084;2022-09-20T03:06:56;14.80;80.50
37560;DHT22;23398;50.928;7.084;2022-09-20T03:12:46;14.80;80.40
37560;DHT22;23398;50.928;7.084;2022-09-20T03:15:41;14.90;80.20
37560;DHT22;23398;50.928;7.084;2022-09-20T03:18:18;14.90;79.60
37560;DHT22;23398;50.928;7.084;2022-09-20T03:29:54;14.90;78.90
37560;DHT22;23398;50.928;7.084;2022-09-20T03:32:58;14.80;79.10
37560;DHT22;23398;50.928;7.084;2022-09-20T03:36:00;14.80;78.90
37560;DHT22;23398;50.928;7.084;2022-09-20T03:39:06;14.80;79.00
37560;DHT22;23398;50.928;7.084;2022-09-20T03:46:45;14.80;78.80
37560;DHT22;23398;50.928;7.084;2022-09-20T03:58:11;14.70;79.40
37560;DHT22;23398;50.928;7.084;2022-09-20T04:01:00;14.70;79.50
37560;DHT22;23398;50.928;7.084;2022-09-20T04:12:19;14.70;80.20
37560;DHT22;23398;50.928;7.084;2022-09-20T04:17:38;14.60;79.80
37560;DHT22;23398;50.928;7.084;2022-09-20T04:22:37;14.60;79.80
37560;DHT22;23398;50.928;7.084;2022-09-20T04:25:16;14.60;79.60
37560;DHT22;23398;50.928;7.084;2022-09-20T04:27:47;14.60;79.90
37560;DHT22;23398;50.928;7.084;2022-09-20T04:30:23;14.50;79.80
37560;DHT22;23398;50.928;7.084;2022-09-20T04:33:19;14.60;80.00
37560;DHT22;23398;50.928;7.084;2022-09-20T04:38:39;14.60;80.20
37560;DHT22;23398;50.928;7.084;2022-09-20T04:47:22;14.50;80.60
37560;DHT22;23398;50.928;7.084;2022-09-20T04:58:37;14.50;80.90
37560;DHT22;23398;50.928;7.084;2022-09-20T05:09:49;14.50;81.00
37560;DHT22;23398;50.928;7.084;2022-09-20T05:12:34;14.50;81.20
37560;DHT22;23398;50.928;7.084;2022-09-20T05:15:16;15.30;82.10
37560;DHT22;23398;50.928;7.084;2022-09-20T05:21:14;14.60;81.20
37560;DHT22;23398;50.928;7.084;2022-09-20T05:28:43;14.70;81.50
37560;DHT22;23398;50.928;7.084;2022-09-20T05:31:39;14.60;81.70
37560;DHT22;23398;50.928;7.084;2022-09-20T05:37:25;14.60;82.00
37560;DHT22;23398;50.928;7.084;2022-09-20T05:40:05;14.70;81.70
37560;DHT22;23398;50.928;7.084;2022-09-20T05:43:01;14.70;82.00
37560;DHT22;23398;50.928;7.084;2022-09-20T05:45:57;14.70;82.00
37560;DHT22;23398;50.928;7.084;2022-09-20T05:48:48;14.50;81.60
37560;DHT22;23398;50.928;7.084;2022-09-20T05:54:59;14.90;81.80
37560;DHT22;23398;50.928;7.084;2022-09-20T06:00:22;15.00;81.60
37560;DHT22;23398;50.928;7.084;2022-09-20T06:03:15;15.00;81.30
37560;DHT22;23398;50.928;7.084;2022-09-20T06:11:20;15.20;81.40
37560;DHT22;23398;50.928;7.084;2022-09-20T06:19:45;15.40;81.60
37560;DHT22;23398;50.928;7.084;2022-09-20T06:22:38;15.50;81.40
37560;DHT22;23398;50.928;7.084;2022-09-20T06:27:38;15.70;81.50
37560;DHT22;23398;50.928;7.084;2022-09-20T06:30:38;15.80;81.30
37560;DHT22;23398;50.928;7.084;2022-09-20T06:35:40;16.00;81.20
37560;DHT22;23398;50.928;7.084;2022-09-20T06:38:34;16.10;80.90
37560;DHT22;23398;50.928;7.084;2022-09-20T06:41:21;16.30;80.80
37560;DHT22;23398;50.928;7.084;2022-09-20T06:44:02;16.40;80.50
37560;DHT22;23398;50.928;7.084;2022-09-20T06:46:33;16.70;80.10
37560;DHT22;23398;50.928;7.084;2022-09-20T06:48:59;16.60;79.40
37560;DHT22;23398;50.928;7.084;2022-09-20T06:51:27;16.80;79.20
37560;DHT22;23398;50.928;7.084;2022-09-20T06:53:54;16.90;78.60
37560;DHT22;23398;50.928;7.084;2022-09-20T06:56:24;17.60;79.00
37560;DHT22;23398;50.928;7.084;2022-09-20T06:58:51;17.10;77.90
37560;DHT22;23398;50.928;7.084;2022-09-20T07:01:17;17.20;78.00
37560;DHT22;23398;50.928;7.084;2022-09-20T07:03:43;18.10;78.50
37560;DHT22;23398;50.928;7.084;2022-09-20T07:06:09;17.60;77.60
37560;DHT22;23398;50.928;7.084;2022-09-20T07:08:35;18.10;77.40
37560;DHT22;23398;50.928;7.084;2022-09-20T07:11:05;18.40;77.90
37560;DHT22;23398;50.928;7.084;2022-09-20T07:13:30;18.10;78.30
37560;DHT22;23398;50.928;7.084;2022-09-20T07:16:02;18.50;80.70
37560;DHT22;23398;50.928;7.084;2022-09-20T07:18:28;19.20;80.00
37560;DHT22;23398;50.928;7.084;2022-09-20T07:20:54;19.90;79.30
37560;DHT22;23398;50.928;7.084;2022-09-20T07:23:26;20.60;76.30
37560;DHT22;23398;50.928;7.084;2022-09-20T07:25:54;21.30;74.30
37560;DHT22;23398;50.928;7.084;2022-09-20T07:28:22;21.90;72.30
37560;DHT22;23398;50.928;7.084;2022-09-20T07:30:47;22.50;68.80
37560;DHT22;23398;50.928;7.084;2022-09-20T07:33:14;22.90;66.20
37560;DHT22;23398;50.928;7.084;2022-09-20T07:35:45;23.20;64.80
37560;DHT22;23398;50.928;7.084;2022-09-20T07:38:11;23.50;64.10
37560;DHT22;23398;50.928;7.084;2022-09-20T07:40:37;23.70;63.10
37560;DHT22;23398;50.928;7.084;2022-09-20T07:43:02;24.00;63.10
37560;DHT22;23398;50.928;7.084;2022-09-20T07:45:28;24.40;62.80
37560;DHT22;23398;50.928;7.084;2022-09-20T07:47:56;24.70;61.20
37560;DHT22;23398;50.928;7.084;2022-09-20T07:50:23;25.10;59.60
37560;DHT22;23398;50.928;7.084;2022-09-20T07:52:49;25.30;58.40
37560;DHT22;23398;50.928;7.084;2022-09-20T07:55:14;25.50;57.30
37560;DHT22;23398;50.928;7.084;2022-09-20T07:57:40;25.50;56.60
37560;DHT22;23398;50.928;7.084;2022-09-20T08:00:08;25.50;56.80
37560;DHT22;23398;50.928;7.084;2022-09-20T08:02:34;25.50;56.80
37560;DHT22;23398;50.928;7.084;2022-09-20T08:05:00;25.60;56.60
37560;DHT22;23398;50.928;7.084;2022-09-20T08:07:25;25.80;56.70
37560;DHT22;23398;50.928;7.084;2022-09-20T08:09:51;26.10;57.00
37560;DHT22;23398;50.928;7.084;2022-09-20T08:12:17;26.50;57.00
37560;DHT22;23398;50.928;7.084;2022-09-20T08:14:44;27.10;56.00
37560;DHT22;23398;50.928;7.084;2022-09-20T08:17:09;27.70;55.90
37560;DHT22;23398;50.928;7.084;2022-09-20T08:19:36;28.40;55.20
37560;DHT22;23398;50.928;7.084;2022-09-20T08:22:05;29.10;54.10
37560;DHT22;23398;50.928;7.084;2022-09-20T08:24:31;29.60;52.20
37560;DHT22;23398;50.928;7.084;2022-09-20T08:26:57;29.90;50.20
37560;DHT22;23398;50.928;7.084;2022-09-20T08:29:23;30.10;48.80
37560;DHT22;23398;50.928;7.084;2022-09-20T08:31:49;30.20;49.00
37560;DHT22;23398;50.928;7.084;2022-09-20T08:34:17;30.40;49.20
37560;DHT22;23398;50.928;7.084;2022-09-20T08:36:44;30.70;49.10
37560;DHT22;23398;50.928;7.084;2022-09-20T08:39:12;31.00;48.60
37560;DHT22;23398;50.928;7.084;2022-09-20T08:41:42;31.50;48.40
37560;DHT22;23398;50.928;7.084;2022-09-20T08:44:26;32.00;47.50
37560;DHT22;23398;50.928;7.084;2022-09-20T08:47:08;32.70;48.00
37560;DHT22;23398;50.928;7.084;2022-09-20T08:49:37;33.20;45.00
37560;DHT22;23398;50.928;7.084;2022-09-20T08:52:03;33.50;43.10
37560;DHT22;23398;50.928;7.084;2022-09-20T08:54:31;33.30;41.70
37560;DHT22;23398;50.928;7.084;2022-09-20T08:57:00;32.90;41.20
37560;DHT22;23398;50.928;7.084;2022-09-20T08:59:30;32.50;41.10
37560;DHT22;23398;50.928;7.084;2022-09-20T09:01:56;31.90;41.80
37560;DHT22;23398;50.928;7.084;2022-09-20T09:04:24;31.50;42.00
37560;DHT22;23398;50.928;7.084;2022-09-20T09:06:55;31.10;42.20
37560;DHT22;23398;50.928;7.084;2022-09-20T09:09:27;30.90;43.20
37560;DHT22;23398;50.928;7.084;2022-09-20T09:11:55;30.80;43.10
37560;DHT22;23398;50.928;7.084;2022-09-20T09:14:32;30.60;42.30
37560;DHT22;23398;50.928;7.084;2022-09-20T09:17:33;30.50;41.80
37560;DHT22;23398;50.928;7.084;2022-09-20T09:20:17;30.20;42.60
37560;DHT22;23398;50.928;7.084;2022-09-20T09:22:46;29.80;42.10
37560;DHT22;23398;50.928;7.084;2022-09-20T09:27:56;28.80;42.50
37560;DHT22;23398;50.928;7.084;2022-09-20T09:30:40;28.30;43.20
37560;DHT22;23398;50.928;7.084;2022-09-20T09:33:29;27.90;43.70
37560;DHT22;23398;50.928;7.084;2022-09-20T09:38:26;27.00;44.60
37560;DHT22;23398;50.928;7.084;2022-09-20T09:41:00;26.70;44.70
37560;DHT22;23398;50.928;7.084;2022-09-20T09:43:28;26.30;45.20
37560;DHT22;23398;50.928;7.084;2022-09-20T09:46:14;25.90;45.40
37560;DHT22;23398;50.928;7.084;2022-09-20T09:48:41;25.60;45.80
37560;DHT22;23398;50.928;7.084;2022-09-20T09:51:13;25.30;46.10
37560;DHT22;23398;50.928;7.084;2022-09-20T09:53:42;24.70;46.70
37560;DHT22;23398;50.928;7.084;2022-09-20T10:05:00;23.10;48.90
37560;DHT22;23398;50.928;7.084;2022-09-20T10:08:12;22.70;49.30
37560;DHT22;23398;50.928;7.084;2022-09-20T10:13:45;22.10;50.40
37560;DHT22;23398;50.928;7.084;2022-09-20T10:19:15;21.40;51.50
37560;DHT22;23398;50.928;7.084;2022-09-20T10:21:49;21.10;52.00
37560;DHT22;23398;50.928;7.084;2022-09-20T10:24:32;20.90;52.30
37560;DHT22;23398;50.928;7.084;2022-09-20T10:27:22;20.80;52.90
37560;DHT22;23398;50.928;7.084;2022-09-20T10:38:16;20.20;54.90
37560;DHT22;23398;50.928;7.084;2022-09-20T10:46:37;20.20;56.00
37560;DHT22;23398;50.928;7.084;2022-09-20T10:55:25;20.60;56.40
37560;DHT22;23398;50.928;7.084;2022-09-20T11:00:21;21.00;55.60
37560;DHT22;23398;50.928;7.084;2022-09-20T11:06:05;21.40;56.00
37560;DHT22;23398;50.928;7.084;2022-09-20T11:08:36;21.70;55.20
37560;DHT22;23398;50.928;7.084;2022-09-20T11:11:04;22.10;55.10
37560;DHT22;23398;50.928;7.084;2022-09-20T11:13:49;22.20;54.30
37560;DHT22;23398;50.928;7.084;2022-09-20T11:16:31;22.40;53.10
37560;DHT22;23398;50.928;7.084;2022-09-20T11:22:05;22.50;52.30
37560;DHT22;23398;50.928;7.084;2022-09-20T11:24:48;22.50;52.60
37560;DHT22;23398;50.928;7.084;2022-09-20T11:27:25;22.40;52.80
37560;DHT22;23398;50.928;7.084;2022-09-20T11:30:06;22.30;52.80
37560;DHT22;23398;50.928;7.084;2022-09-20T11:32:45;22.20;52.80
37560;DHT22;23398;50.928;7.084;2022-09-20T11:37:48;22.40;53.40
37560;DHT22;23398;50.928;7.084;2022-09-20T11:40:42;21.90;53.20
37560;DHT22;23398;50.928;7.084;2022-09-20T11:43:10;21.70;53.40
37560;DHT22;23398;50.928;7.084;2022-09-20T11:45:39;21.60;54.40
37560;DHT22;23398;50.928;7.084;2022-09-20T11:48:17;21.50;53.60
37560;DHT22;23398;50.928;7.084;2022-09-20T11:53:41;21.30;54.00
37560;DHT22;23398;50.928;7.084;2022-09-20T11:56:21;21.20;54.60
37560;DHT22;23398;50.928;7.084;2022-09-20T11:58:52;21.20;54.50
37560;DHT22;23398;50.928;7.084;2022-09-20T12:01:40;21.20;54.90
37560;DHT22;23398;50.928;7.084;2022-09-20T12:04:33;21.20;55.00
37560;DHT22;23398;50.928;7.084;2022-09-20T12:07:15;21.20;54.40
37560;DHT22;23398;50.928;7.084;2022-09-20T12:09:44;21.30;54.60
37560;DHT22;23398;50.928;7.084;2022-09-20T12:12:31;21.80;54.80
37560;DHT22;23398;50.928;7.084;2022-09-20T12:15:00;21.30;54.50
37560;DHT22;23398;50.928;7.084;2022-09-20T12:18:03;21.30;54.40
37560;DHT22;23398;50.928;7.084;2022-09-20T12:28:43;21.40;54.40
37560;DHT22;23398;50.928;7.084;2022-09-20T12:36:40;21.40;53.80
37560;DHT22;23398;50.928;7.084;2022-09-20T12:41:53;21.30;53.50
37560;DHT22;23398;50.928;7.084;2022-09-20T12:44:29;21.30;53.60
37560;DHT22;23398;50.928;7.084;2022-09-20T12:47:06;21.30;53.60
37560;DHT22;23398;50.928;7.084;2022-09-20T12:58:37;21.40;53.40
37560;DHT22;23398;50.928;7.084;2022-09-20T13:16:56;21.10;53.00
37560;DHT22;23398;50.928;7.084;2022-09-20T13:19:46;21.00;53.40
37560;DHT22;23398;50.928;7.084;2022-09-20T13:22:23;21.00;53.50
37560;DHT22;23398;50.928;7.084;2022-09-20T13:24:52;21.00;53.20
37560;DHT22;23398;50.928;7.084;2022-09-20T13:27:28;21.00;53.70
37560;DHT22;23398;50.928;7.084;2022-09-20T13:30:17;21.00;52.90
37560;DHT22;23398;50.928;7.084;2022-09-20T13:32:45;21.00;53.60
37560;DHT22;23398;50.928;7.084;2022-09-20T13:38:03;21.10;52.90
37560;DHT22;23398;50.928;7.084;2022-09-20T13:40:42;21.20;52.90
37560;DHT22;23398;50.928;7.084;2022-09-20T13:43:30;21.70;53.40
37560;DHT22;23398;50.928;7.084;2022-09-20T13:45:58;21.30;52.70
37560;DHT22;23398;50.928;7.084;2022-09-20T13:48:29;21.50;53.30
37560;DHT22;23398;50.928;7.084;2022-09-20T13:50:55;21.40;52.80
37560;DHT22;23398;50.928;7.084;2022-09-20T13:53:23;21.50;53.00
37560;DHT22;23398;50.928;7.084;2022-09-20T13:55:49;21.50;52.90
37560;DHT22;23398;50.928;7.084;2022-09-20T13:58:29;21.70;53.00
37560;DHT22;23398;50.928;7.084;2022-09-20T14:01:05;21.60;52.40
37560;DHT22;23398;50.928;7.084;2022-09-20T14:03:33;21.60;52.50
37560;DHT22;23398;50.928;7.084;2022-09-20T14:06:08;21.70;52.50
37560;DHT22;23398;50.928;7.084;2022-09-20T14:08:40;21.70;52.30
37560;DHT22;23398;50.928;7.084;2022-09-20T14:11:27;21.70;52.40
37560;DHT22;23398;50.928;7.084;2022-09-20T14:13:55;21.70;52.10
37560;DHT22;23398;50.928;7.084;2022-09-20T14:16:33;21.70;52.80
37560;DHT22;23398;50.928;7.084;2022-09-20T14:19:03;21.60;53.20
37560;DHT22;23398;50.928;7.084;2022-09-20T14:21:33;21.60;53.10
37560;DHT22;23398;50.928;7.084;2022-09-20T14:24:00;21.50;52.80
37560;DHT22;23398;50.928;7.084;2022-09-20T14:37:24;21.00;52.90
37560;DHT22;23398;50.928;7.084;2022-09-20T14:39:56;21.00;53.40
37560;DHT22;23398;50.928;7.084;2022-09-20T14:42:56;20.60;53.40
37560;DHT22;23398;50.928;7.084;2022-09-20T14:45:23;20.40;53.70
37560;DHT22;23398;50.928;7.084;2022-09-20T14:47:54;20.30;54.00
37560;DHT22;23398;50.928;7.084;2022-09-20T14:50:34;20.20;54.50
37560;DHT22;23398;50.928;7.084;2022-09-20T14:53:14;20.10;54.90
37560;DHT22;23398;50.928;7.084;2022-09-20T14:58:29;20.00;54.70
37560;DHT22;23398;50.928;7.084;2022-09-20T15:01:22;20.00;54.70
37560;DHT22;23398;50.928;7.084;2022-09-20T15:03:48;20.00;54.60
37560;DHT22;23398;50.928;7.084;2022-09-20T15:06:14;20.20;55.10
37560;DHT22;23398;50.928;7.084;2022-09-20T15:08:40;20.00;55.00
37560;DHT22;23398;50.928;7.084;2022-09-20T15:11:10;20.00;55.20
37560;DHT22;23398;50.928;7.084;2022-09-20T15:13:38;20.50;55.40
37560;DHT22;23398;50.928;7.084;2022-09-20T15:16:04;20.20;55.50
37560;DHT22;23398;50.928;7.084;2022-09-20T15:18:37;20.40;55.60
37560;DHT22;23398;50.928;7.084;2022-09-20T15:21:03;20.50;55.60
37560;DHT22;23398;50.928;7.084;2022-09-20T15:23:30;20.70;55.20
37560;DHT22;23398;50.928;7.084;2022-09-20T15:25:55;20.90;55.00
37560;DHT22;23398;50.928;7.084;2022-09-20T15:28:21;21.10;54.60
37560;DHT22;23398;50.928;7.084;2022-09-20T15:30:49;21.30;54.50
37560;DHT22;23398;50.928;7.084;2022-09-20T15:33:15;21.50;53.80
37560;DHT22;23398;50.928;7.084;2022-09-20T15:35:41;21.60;53.80
37560;DHT22;23398;50.928;7.084;2022-09-20T15:38:07;21.70;53.40
37560;DHT22;23398;50.928;7.084;2022-09-20T15:40:38;21.80;53.50
37560;DHT22;23398;50.928;7.084;2022-09-20T15:43:04;21.90;53.30
37560;DHT22;23398;50.928;7.084;2022-09-20T15:45:29;22.40;53.60
37560;DHT22;23398;50.928;7.084;2022-09-20T15:47:56;21.90;53.20
37560;DHT22;23398;50.928;7.084;2022-09-20T15:50:22;22.10;52.90
37560;DHT22;23398;50.928;7.084;2022-09-20T15:52:50;22.00;52.90
37560;DHT22;23398;50.928;7.084;2022-09-20T15:55:17;22.00;52.50
37560;DHT22;23398;50.928;7.084;2022-09-20T15:57:43;22.00;52.50
37560;DHT22;23398;50.928;7.084;2022-09-20T16:00:10;22.00;52.20
37560;DHT22;23398;50.928;7.084;2022-09-20T16:02:36;21.90;52.00
37560;DHT22;23398;50.928;7.084;2022-09-20T16:05:01;21.90;52.10
37560;DHT22;23398;50.928;7.084;2022-09-20T16:07:27;21.70;51.80
37560;DHT22;23398;50.928;7.084;2022-09-20T16:09:56;21.70;51.90
37560;DHT22;23398;50.928;7.084;2022-09-20T16:12:23;21.70;52.60
37560;DHT22;23398;50.928;7.084;2022-09-20T16:14:49;21.70;52.80
37560;DHT22;23398;50.928;7.084;2022-09-20T16:17:15;21.50;52.90
37560;DHT22;23398;50.928;7.084;2022-09-20T16:19:41;21.50;53.30
37560;DHT22;23398;50.928;7.084;2022-09-20T16:22:08;21.40;53.90
37560;DHT22;23398;50.928;7.084;2022-09-20T16:24:34;21.40;53.10
37560;DHT22;23398;50.928;7.084;2022-09-20T16:27:02;21.30;53.00
37560;DHT22;23398;50.928;7.084;2022-09-20T16:29:29;21.30;52.60
37560;DHT22;23398;50.928;7.084;2022-09-20T16:31:55;21.30;52.50
37560;DHT22;23398;50.928;7.084;2022-09-20T16:34:30;21.20;52.60
37560;DHT22;23398;50.928;7.084;2022-09-20T16:36:58;21.10;53.20
37560;DHT22;23398;50.928;7.084;2022-09-20T16:39:25;21.00;52.80
37560;DHT22;23398;50.928;7.084;2022-09-20T16:42:02;20.90;52.60
37560;DHT22;23398;50.928;7.084;2022-09-20T16:44:33;20.80;53.20
37560;DHT22;23398;50.928;7.084;2022-09-20T16:46:59;20.70;53.40
37560;DHT22;23398;50.928;7.084;2022-09-20T16:49:25;20.60;53.20
37560;DHT22;23398;50.928;7.084;2022-09-20T16:51:52;20.50;53.40
37560;DHT22;23398;50.928;7.084;2022-09-20T16:54:18;20.30;53.20
37560;DHT22;23398;50.928;7.084;2022-09-20T16:56:48;20.30;53.80
37560;DHT22;23398;50.928;7.084;2022-09-20T16:59:18;20.50;53.90
37560;DHT22;23398;50.928;7.084;2022-09-20T17:01:45;19.90;53.50
37560;DHT22;23398;50.928;7.084;2022-09-20T17:04:12;19.80;53.70
37560;DHT22;23398;50.928;7.084;2022-09-20T17:06:39;19.70;53.80
37560;DHT22;23398;50.928;7.084;2022-09-20T17:09:06;19.60;54.20
37560;DHT22;23398;50.928;7.084;2022-09-20T17:11:34;19.50;54.10
37560;DHT22;23398;50.928;7.084;2022-09-20T17:14:01;19.40;54.20
37560;DHT22;23398;50.928;7.084;2022-09-20T17:16:29;19.50;55.20
37560;DHT22;23398;50.928;7.084;2022-09-20T17:18:59;20.10;55.30
37560;DHT22;23398;50.928;7.084;2022-09-20T17:21:26;19.10;54.60
37560;DHT22;23398;50.928;7.084;2022-09-20T17:23:54;19.00;54.80
37560;DHT22;23398;50.928;7.084;2022-09-20T17:26:26;19.00;55.00
37560;DHT22;23398;50.928;7.084;2022-09-20T17:28:54;18.90;55.20
37560;DHT22;23398;50.928;7.084;2022-09-20T17:31:26;18.80;55.40
37560;DHT22;23398;50.928;7.084;2022-09-20T17:33:58;18.80;55.40
37560;DHT22;23398;50.928;7.084;2022-09-20T17:36:26;18.70;55.40
37560;DHT22;23398;50.928;7.084;2022-09-20T17:38:54;18.70;55.70
37560;DHT22;23398;50.928;7.084;2022-09-20T17:41:20;18.60;55.70
37560;DHT22;23398;50.928;7.084;2022-09-20T17:43:47;18.50;55.80
37560;DHT22;23398;50.928;7.084;2022-09-20T17:46:27;18.50;56.00
37560;DHT22;23398;50.928;7.084;2022-09-20T17:48:57;18.40;56.00
37560;DHT22;23398;50.928;7.084;2022-09-20T17:51:27;18.30;56.00
37560;DHT22;23398;50.928;7.084;2022-09-20T17:53:53;18.30;56.10
37560;DHT22;23398;50.928;7.084;2022-09-20T17:56:20;18.20;56.30
37560;DHT22;23398;50.928;7.084;2022-09-20T17:58:49;18.10;56.40
37560;DHT22;23398;50.928;7.084;2022-09-20T18:01:16;18.10;56.60
37560;DHT22;23398;50.928;7.084;2022-09-20T18:03:44;18.00;56.70
37560;DHT22;23398;50.928;7.084;2022-09-20T18:06:16;17.90;56.80
37560;DHT22;23398;50.928;7.084;2022-09-20T18:08:54;17.80;56.90
37560;DHT22;23398;50.928;7.084;2022-09-20T18:11:23;18.60;57.80
37560;DHT22;23398;50.928;7.084;2022-09-20T18:13:50;17.60;57.10
37560;DHT22;23398;50.928;7.084;2022-09-20T18:16:16;17.50;57.50
37560;DHT22;23398;50.928;7.084;2022-09-20T18:18:44;17.40;57.90
37560;DHT22;23398;50.928;7.084;2022-09-20T18:21:23;17.30;58.30
37560;DHT22;23398;50.928;7.084;2022-09-20T18:23:50;17.20;58.60
37560;DHT22;23398;50.928;7.084;2022-09-20T18:26:21;17.10;58.50
37560;DHT22;23398;50.928;7.084;2022-09-20T18:34:05;16.70;59.40
37560;DHT22;23398;50.928;7.084;2022-09-20T18:36:33;16.50;59.90
37560;DHT22;23398;50.928;7.084;2022-09-20T18:38:59;16.40;60.50
37560;DHT22;23398;50.928;7.084;2022-09-20T18:41:27;16.30;61.00
37560;DHT22;23398;50.928;7.084;2022-09-20T18:43:55;16.20;61.70
37560;DHT22;23398;50.928;7.084;2022-09-20T18:46:21;16.10;62.20
37560;DHT22;23398;50.928;7.084;2022-09-20T18:48:54;16.00;62.60
37560;DHT22;23398;50.928;7.084;2022-09-20T18:51:21;16.00;62.90
37560;DHT22;23398;50.928;7.084;2022-09-20T18:53:49;15.80;62.70
37560;DHT22;23398;50.928;7.084;2022-09-20T18:58:59;15.70;63.40
37560;DHT22;23398;50.928;7.084;2022-09-20T19:01:33;15.60;63.20
37560;DHT22;23398;50.928;7.084;2022-09-20T19:09:52;15.30;64.70
37560;DHT22;23398;50.928;7.084;2022-09-20T19:23:09;15.00;67.00
37560;DHT22;23398;50.928;7.084;2022-09-20T19:25:41;14.90;66.20
37560;DHT22;23398;50.928;7.084;2022-09-20T19:28:10;14.90;66.40
37560;DHT22;23398;50.928;7.084;2022-09-20T19:30:37;14.90;66.50
37560;DHT22;23398;50.928;7.084;2022-09-20T19:33:04;14.90;66.80
37560;DHT22;23398;50.928;7.084;2022-09-20T19:35:34;14.90;66.90
37560;DHT22;23398;50.928;7.084;2022-09-20T19:38:07;15.60;67.90
37560;DHT22;23398;50.928;7.084;2022-09-20T19:43:44;14.90;67.60
37560;DHT22;23398;50.928;7.084;2022-09-20T19:46:46;14.90;68.30
37560;DHT22;23398;50.928;7.084;2022-09-20T19:49:20;14.90;68.20
37560;DHT22;23398;50.928;7.084;2022-09-20T19:51:46;14.90;67.70
37560;DHT22;23398;50.928;7.084;2022-09-20T19:54:13;14.90;67.90
37560;DHT22;23398;50.928;7.084;2022-09-20T19:56:52;14.90;68.20
37560;DHT22;23398;50.928;7.084;2022-09-20T19:59:20;14.90;68.50
37560;DHT22;23398;50.928;7.084;2022-09-20T20:01:46;14.80;68.40
37560;DHT22;23398;50.928;7.084;2022-09-20T20:04:12;14.80;68.60
37560;DHT22;23398;50.928;7.084;2022-09-20T20:09:43;14.80;69.00
37560;DHT22;23398;50.928;7.084;2022-09-20T20:12:13;14.80;68.60
37560;DHT22;23398;50.928;7.084;2022-09-20T20:17:59;14.80;68.50
37560;DHT22;23398;50.928;7.084;2022-09-20T20:20:37;14.80;69.10
37560;DHT22;23398;50.928;7.084;2022-09-20T20:28:29;14.70;68.70
37560;DHT22;23398;50.928;7.084;2022-09-20T20:30:55;14.70;68.70
37560;DHT22;23398;50.928;7.084;2022-09-20T20:33:22;15.30;69.50
37560;DHT22;23398;50.928;7.084;2022-09-20T20:35:53;14.60;68.90
37560;DHT22;23398;50.928;7.084;2022-09-20T20:38:20;14.60;69.10
37560;DHT22;23398;50.928;7.084;2022-09-20T20:40:56;14.60;69.10
37560;DHT22;23398;50.928;7.084;2022-09-20T20:43:22;14.60;69.30
37560;DHT22;23398;50.928;7.084;2022-09-20T20:45:49;14.60;69.30
37560;DHT22;23398;50.928;7.084;2022-09-20T20:48:15;14.50;69.40
37560;DHT22;23398;50.928;7.084;2022-09-20T20:50:40;15.10;70.20
37560;DHT22;23398;50.928;7.084;2022-09-20T20:53:06;14.80;70.20
37560;DHT22;23398;50.928;7.084;2022-09-20T20:55:31;14.40;69.90
37560;DHT22;23398;50.928;7.084;2022-09-20T20:57:57;14.30;70.00
37560;DHT22;23398;50.928;7.084;2022-09-20T21:00:27;14.30;70.00
37560;DHT22;23398;50.928;7.084;2022-09-20T21:02:59;14.20;70.10
37560;DHT22;23398;50.928;7.084;2022-09-20T21:05:26;14.20;70.40
37560;DHT22;23398;50.928;7.084;2022-09-20T21:07:52;14.10;70.40
37560;DHT22;23398;50.928;7.084;2022-09-20T21:10:20;14.10;70.90
37560;DHT22;23398;50.928;7.084;2022-09-20T21:12:48;14.10;71.10
37560;DHT22;23398;50.928;7.084;2022-09-20T21:15:18;14.00;71.30
37560;DHT22;23398;50.928;7.084;2022-09-20T21:17:51;14.00;71.50